Latest Weather Observations for Wattamolla

IDN60801

Issued at 7:33 pm EDT Wednesday 29 January 2020 (issued every 10 minutes, with the page automatically refreshed every 10 minutes)

About weather observations | Map of weather stations | Latest weather observations for NSW | Other Formats
Station Details ID: 066208 Name: WATTAMOLLA AWS Lat: -34.14 Lon: 151.12 Height: 44.0 m
Data from the previous 72 hours. | See also: Recent months at Wattamolla
Date/Time
EDT
Temp
°C
App
Temp
°C
Dew
Point
°C
Rel
Hum
%
Delta-T
°C
Wind Press
QNH
hPa
Press
MSL
hPa
Rain since
9am
mm
Dir  Spd
km/h
Gust
km/h
Spd
kts
Gust
kts
29/07:30pm - - - - - SE 20 26 11 14 - - -
29/07:00pm - - - - - SE 24 28 13 15 - - -
29/06:30pm - - - - - SSE 22 28 12 15 - - -
29/06:00pm - - - - - SE 26 30 14 16 - - -
29/05:30pm - - - - - SSE 28 33 15 18 - - -
29/05:00pm - - - - - SSE 28 32 15 17 - - -
29/04:30pm - - - - - SSE 24 33 13 18 - - -
29/04:00pm - - - - - SSE 22 30 12 16 - - -
29/03:30pm - - - - - SSE 20 28 11 15 - - -
29/03:00pm - - - - - SSE 22 28 12 15 - - -
29/02:30pm - - - - - SSE 22 28 12 15 - - -
29/02:00pm - - - - - SSE 24 30 13 16 - - -
29/01:30pm - - - - - SSE 28 32 15 17 - - -
29/01:00pm - - - - - S 28 32 15 17 - - -
29/12:30pm - - - - - S 28 33 15 18 - - -
29/12:00pm - - - - - S 26 30 14 16 - - -
29/11:30am - - - - - S 28 33 15 18 - - -
29/11:00am - - - - - S 30 33 16 18 - - -
29/10:30am - - - - - S 30 33 16 18 - - -
29/10:00am - - - - - S 33 39 18 21 - - -
29/09:30am - - - - - S 35 41 19 22 - - -
29/09:00am - - - - - S 35 41 19 22 - - -
29/08:30am - - - - - S 33 39 18 21 - - -
29/08:00am - - - - - S 35 43 19 23 - - -
29/07:30am - - - - - S 39 44 21 24 - - -
29/07:00am - - - - - S 43 48 23 26 - - -
29/06:30am - - - - - S 43 48 23 26 - - -
29/06:00am - - - - - S 48 54 26 29 - - -
29/05:30am - - - - - S 46 52 25 28 - - -
29/05:00am - - - - - S 46 52 25 28 - - -
29/04:30am - - - - - S 46 54 25 29 - - -
29/04:00am - - - - - S 50 57 27 31 - - -
29/03:30am - - - - - S 50 56 27 30 - - -
29/03:00am - - - - - S 50 54 27 29 - - -
29/02:30am - - - - - S 46 52 25 28 - - -
29/02:00am - - - - - S 44 52 24 28 - - -
29/01:30am - - - - - S 50 56 27 30 - - -
29/01:00am - - - - - S 48 56 26 30 - - -
29/12:30am - - - - - S 43 54 23 29 - - -
29/12:00am - - - - - S 46 54 25 29 - - -
 
Date/Time
EDT
Temp
°C
App
Temp
°C
Dew
Point
°C
Rel
Hum
%
Delta-T
°C
Wind Press
QNH
hPa
Press
MSL
hPa
Rain since
9am
mm
Dir  Spd
km/h
Gust
km/h
Spd
kts
Gust
kts
28/11:30pm - - - - - S 48 57 26 31 - - -
28/11:00pm - - - - - S 50 59 27 32 - - -
28/10:30pm - - - - - S 54 61 29 33 - - -
28/10:00pm - - - - - S 54 61 29 33 - - -
28/09:30pm - - - - - S 54 63 29 34 - - -
28/09:00pm - - - - - S 56 61 30 33 - - -
28/08:30pm - - - - - S 50 57 27 31 - - -
28/08:00pm - - - - - S 41 50 22 27 - - -
28/07:30pm - - - - - S 43 50 23 27 - - -
28/07:00pm - - - - - SSE 32 37 17 20 - - -
28/06:30pm - - - - - SSE 28 32 15 17 - - -
28/06:00pm - - - - - SSE 24 28 13 15 - - -
28/05:30pm - - - - - SSE 26 32 14 17 - - -
28/05:00pm - - - - - SSE 28 30 15 16 - - -
28/04:30pm - - - - - SSE 26 30 14 16 - - -
28/04:00pm - - - - - S 19 20 10 11 - - -
28/03:30pm - - - - - SSE 13 13 7 7 - - -
28/03:00pm - - - - - ESE 9 11 5 6 - - -
28/02:30pm - - - - - ENE 13 19 7 10 - - -
28/02:00pm - - - - - ENE 11 15 6 8 - - -
28/01:30pm - - - - - S 9 11 5 6 - - -
28/01:00pm - - - - - S 15 20 8 11 - - -
28/12:30pm - - - - - SSE 17 20 9 11 - - -
28/12:00pm - - - - - S 15 19 8 10 - - -
28/11:30am - - - - - S 15 20 8 11 - - -
28/11:00am - - - - - S 13 22 7 12 - - -
28/10:30am - - - - - S 13 17 7 9 - - -
28/10:00am - - - - - S 13 19 7 10 - - -
28/09:30am - - - - - S 17 22 9 12 - - -
28/09:00am - - - - - SSW 15 26 8 14 - - -
28/08:30am - - - - - S 15 20 8 11 - - -
28/08:00am - - - - - S 13 20 7 11 - - -
28/07:30am - - - - - S 20 26 11 14 - - -
28/07:00am - - - - - S 17 26 9 14 - - -
28/06:30am - - - - - S 11 15 6 8 - - -
28/06:00am - - - - - S 11 15 6 8 - - -
28/05:30am - - - - - SSW 13 17 7 9 - - -
28/05:00am - - - - - SW 9 13 5 7 - - -
28/04:30am - - - - - SSW 11 13 6 7 - - -
28/04:00am - - - - - W 7 7 4 4 - - -
28/03:30am - - - - - SSW 7 9 4 5 - - -
28/03:00am - - - - - SW 7 9 4 5 - - -
28/02:30am - - - - - N 6 7 3 4 - - -
28/02:00am - - - - - SSW 4 6 2 3 - - -
28/01:30am - - - - - SSE 2 6 1 3 - - -
28/01:00am - - - - - NNE 9 13 5 7 - - -
28/12:30am - - - - - NNE 11 13 6 7 - - -
28/12:00am - - - - - NE 9 11 5 6 - - -
 
Date/Time
EDT
Temp
°C
App
Temp
°C
Dew
Point
°C
Rel
Hum
%
Delta-T
°C
Wind Press
QNH
hPa
Press
MSL
hPa
Rain since
9am
mm
Dir  Spd
km/h
Gust
km/h
Spd
kts
Gust
kts
27/11:30pm - - - - - NE 9 13 5 7 - - -
27/11:00pm - - - - - NNE 9 15 5 8 - - -
27/10:30pm - - - - - NNE 7 13 4 7 - - -
27/10:00pm - - - - - NNE 17 28 9 15 - - -
27/09:30pm - - - - - N 17 20 9 11 - - -
27/09:00pm - - - - - N 24 33 13 18 - - -
27/08:30pm - - - - - N 22 32 12 17 - - -
27/08:00pm - - - - - NNE 13 20 7 11 - - -
27/07:30pm - - - - - N 15 22 8 12 - - -
27/07:00pm - - - - - NE 13 22 7 12 - - -
27/06:30pm - - - - - NNE 13 19 7 10 - - -
27/06:00pm - - - - - NE 7 11 4 6 - - -
27/05:30pm - - - - - S 9 11 5 6 - - -
27/05:00pm - - - - - S 9 13 5 7 - - -
27/04:30pm - - - - - S 15 19 8 10 - - -
27/04:00pm - - - - - S 11 13 6 7 - - -
27/03:30pm - - - - - SSE 13 17 7 9 - - -
27/03:00pm - - - - - SSE 19 26 10 14 - - -
27/02:30pm - - - - - SSE 20 28 11 15 - - -
27/02:00pm - - - - - SSE 20 26 11 14 - - -
27/01:30pm - - - - - SSE 24 28 13 15 - - -
27/01:00pm - - - - - SSE 30 35 16 19 - - -
27/12:30pm - - - - - SSE 30 35 16 19 - - -
27/12:00pm - - - - - SSE 32 37 17 20 - - -
27/11:30am - - - - - SSE 30 37 16 20 - - -
27/11:00am - - - - - S 33 39 18 21 - - -
27/10:30am - - - - - S 37 43 20 23 - - -
27/10:00am - - - - - S 43 48 23 26 - - -
27/09:30am - - - - - S 43 48 23 26 - - -
27/09:00am - - - - - S 39 46 21 25 - - -
27/08:30am - - - - - S 46 52 25 28 - - -
27/08:00am - - - - - S 43 50 23 27 - - -
27/07:30am - - - - - S 39 48 21 26 - - -
27/07:00am - - - - - S 41 50 22 27 - - -
27/06:30am - - - - - S 44 54 24 29 - - -
27/06:00am - - - - - S 46 57 25 31 - - -
27/05:30am - - - - - S 48 59 26 32 - - -
27/05:00am - - - - - S 50 59 27 32 - - -
27/04:30am - - - - - S 50 59 27 32 - - -
27/04:00am - - - - - S 43 56 23 30 - - -
27/03:30am - - - - - S 41 52 22 28 - - -
27/03:00am - - - - - S 50 61 27 33 - - -
27/02:30am - - - - - S 52 67 28 36 - - -
27/02:00am - - - - - S 54 67 29 36 - - -
27/01:51am - - - - - S 52 70 28 38 - - -
27/01:30am - - - - - S 54 67 29 36 - - -
27/01:10am - - - - - S 50 69 27 37 - - -
27/01:00am - - - - - S 52 67 28 36 - - -
27/12:38am - - - - - SSE 46 67 25 36 - - -
27/12:30am - - - - - S 43 59 23 32 - - -
27/12:01am - - - - - S 33 57 18 31 - - -
27/12:00am - - - - - S 33 48 18 26 - - -
 
Date/Time
EDT
Temp
°C
App
Temp
°C
Dew
Point
°C
Rel
Hum
%
Delta-T
°C
Wind Press
QNH
hPa
Press
MSL
hPa
Rain since
9am
mm
Dir  Spd
km/h
Gust
km/h
Spd
kts
Gust
kts
26/11:41pm - - - - - S 41 59 22 32 - - -
26/11:30pm - - - - - S 54 63 29 34 - - -
26/11:17pm - - - - - S 28 48 15 26 - - -
26/11:00pm - - - - - SW 13 26 7 14 - - -
26/10:30pm - - - - - NNW 11 13 6 7 - - -
26/10:00pm - - - - - N 11 15 6 8 - - -
26/09:30pm - - - - - NNW 9 11 5 6 - - -
26/09:00pm - - - - - NNW 11 13 6 7 - - -
26/08:30pm - - - - - NNW 11 15 6 8 - - -
26/08:00pm - - - - - N 20 30 11 16 - - -

Other formats

Comma delimited format used in spreadsheet applications
http://www.bom.gov.au/fwo/IDN60801/IDN60801.95752.axf

JavaScript Object Notation format (JSON) in row-major order
http://www.bom.gov.au/fwo/IDN60801/IDN60801.95752.json

Data quality

Most of these data are generated automatically and are frequently updated. Quality checks on data are not normally performed. It is possible for incorrect values to appear. Refer to information at About Latest Weather Observations and please check the disclaimer before using these data.